Arkabutla, Mississippi
Current Conditions -  °F | °C
As of 3:35 AM on Friday 19 Dec 2014 (Local Time) from KUTA Reporting Station
Overcast Overcast  
Wind Chill: 40°   Ceiling: 3700
Heat Index: 43°   Visibility: 7mi
Dew Point: 41°   Wind: 5mph
Humidity: 93%   Direction: 360°N
Pressure: 30.21"   Gusts: NA
Location:  34.7°N, 90.12°W
Report Text: KUTA 190935Z AUTO 36004KT 7SM SCT018 SCT029 OVC037 06/05 A3021 RMK AO2
Loading
Personal Weather Stations






























Interactive Weather Map New forecast layout! Learn more

10-Day Weather Forecast

Advertisements
Track Severe Weather on mobile